Time;durP1;ratioP1;P1;durP2;ratioP2;P2;SDS_P1;SDS_P2;PMS_P1;PMS_P2;Temp;Humidity;BMP_temperature;BMP_pressure;BME280_temperature;BME280_humidity;BME280_pressure;Samples;Min_cycle;Max_cycle;Signal;HPM_P1;HPM_P2
2024/03/01 00:00:21;;;;;;;5.55;5.00;;;;;;;-146.26;100.00;59860.63;5064352;28;20048;-73
2024/03/01 00:02:48;;;;;;;0.70;0.68;;;;;;;-146.26;100.00;59860.63;5066440;28;20049;-73
2024/03/01 00:05:14;;;;;;;1.33;1.25;;;;;;;-146.26;100.00;59860.63;5062559;28;20466;-74
2024/03/01 00:07:40;;;;;;;0.73;0.73;;;;;;;-146.26;100.00;59860.63;5064250;28;20037;-75
2024/03/01 00:10:07;;;;;;;3.67;3.53;;;;;;;-146.26;100.00;59860.63;5062706;28;20036;-72
2024/03/01 00:12:37;;;;;;;0.38;0.38;;;;;;;-146.26;100.00;59860.63;5067303;28;20131;-73
2024/03/01 00:15:02;;;;;;;0.80;0.80;;;;;;;-146.26;100.00;59860.63;5073139;28;20117;-72
2024/03/01 00:17:28;;;;;;;1.10;0.73;;;;;;;-146.26;100.00;59860.63;5068531;28;20402;-73
2024/03/01 00:19:54;;;;;;;0.40;0.40;;;;;;;-146.26;100.00;59860.63;5066872;28;20083;-74
2024/03/01 00:22:19;;;;;;;0.20;0.20;;;;;;;-146.26;100.00;59860.63;5066890;28;20041;-73
2024/03/01 00:24:45;;;;;;;1.92;1.83;;;;;;;-146.26;100.00;59860.63;5067852;28;20057;-74
2024/03/01 00:27:12;;;;;;;0.60;0.60;;;;;;;-146.26;100.00;59860.63;5067111;28;20135;-73
2024/03/01 00:29:37;;;;;;;4.20;4.05;;;;;;;-146.26;100.00;59860.63;5069888;28;20079;-73
2024/03/01 00:32:04;;;;;;;2.60;2.50;;;;;;;-146.26;100.00;59860.63;5040632;28;20056;-75
2024/03/01 00:34:30;;;;;;;1.40;1.30;;;;;;;-146.26;100.00;59860.63;5068118;28;20032;-73
2024/03/01 00:36:55;;;;;;;0.50;0.50;;;;;;;-146.26;100.00;59860.63;5045312;28;20068;-73
2024/03/01 00:39:21;;;;;;;0.30;0.30;;;;;;;-146.26;100.00;59860.63;5044817;28;20190;-73
2024/03/01 00:41:46;;;;;;;0.82;0.82;;;;;;;-146.26;100.00;59860.63;5060837;28;20072;-73
2024/03/01 00:44:12;;;;;;;3.15;2.95;;;;;;;-146.26;100.00;59860.63;5032488;28;20068;-72
2024/03/01 00:46:37;;;;;;;1.85;1.75;;;;;;;-146.26;100.00;59860.63;5063019;28;20048;-73
2024/03/01 00:49:03;;;;;;;5.03;2.38;;;;;;;-146.26;100.00;59860.63;5050372;28;20657;-72
2024/03/01 00:51:28;;;;;;;3.30;0.82;;;;;;;-146.26;100.00;59860.63;5052241;28;20156;-72
2024/03/01 00:53:54;;;;;;;0.52;0.52;;;;;;;-146.26;100.00;59860.63;5064775;28;20095;-72
2024/03/01 00:56:20;;;;;;;7.53;7.05;;;;;;;-146.26;100.00;59860.63;5070733;28;20060;-72
2024/03/01 00:58:45;;;;;;;0.95;0.85;;;;;;;-146.26;100.00;59860.63;5063724;28;20490;-74
2024/03/01 01:01:12;;;;;;;0.40;0.40;;;;;;;-146.26;100.00;59860.63;5062524;28;20040;-73
2024/03/01 01:03:37;;;;;;;1.05;1.05;;;;;;;-146.26;100.00;59860.63;5063639;28;20415;-74
2024/03/01 01:06:03;;;;;;;0.30;0.30;;;;;;;-146.26;100.00;59860.63;5063660;28;20479;-72
2024/03/01 01:08:29;;;;;;;0.38;0.38;;;;;;;-146.26;100.00;59860.63;5026277;28;20142;-72
2024/03/01 01:10:55;;;;;;;8.43;6.05;;;;;;;-146.26;100.00;59860.63;5066277;28;20088;-73
2024/03/01 01:13:22;;;;;;;1.20;1.02;;;;;;;-146.26;100.00;59860.63;5078779;28;20395;-72
2024/03/01 01:15:47;;;;;;;3.10;3.00;;;;;;;-146.26;100.00;59860.63;5066539;28;20053;-74
2024/03/01 01:18:16;;;;;;;1.23;1.15;;;;;;;-146.26;100.00;59860.63;5067326;28;20102;-74
2024/03/01 01:20:42;;;;;;;1.00;0.85;;;;;;;-146.26;100.00;59860.63;5051506;28;20649;-73
2024/03/01 01:23:07;;;;;;;1.95;1.85;;;;;;;-146.26;100.00;59860.63;5068069;28;20024;-72
2024/03/01 01:25:33;;;;;;;0.50;0.50;;;;;;;-146.26;100.00;59860.63;5064322;28;20457;-74
2024/03/01 01:27:59;;;;;;;1.95;1.85;;;;;;;-146.26;100.00;59860.63;5071068;28;20553;-73
2024/03/01 01:30:25;;;;;;;0.35;0.35;;;;;;;-146.26;100.00;59860.63;5068879;28;20041;-73
2024/03/01 01:32:51;;;;;;;1.75;1.65;;;;;;;-146.26;100.00;59860.63;5044518;28;20048;-74
2024/03/01 01:35:16;;;;;;;0.55;0.55;;;;;;;-146.26;100.00;59860.63;5075443;28;20056;-74
2024/03/01 01:37:42;;;;;;;1.58;1.50;;;;;;;-146.26;100.00;59860.63;5080357;28;20028;-73
2024/03/01 01:40:11;;;;;;;0.60;0.60;;;;;;;-146.26;100.00;59860.63;5082476;28;20074;-73
2024/03/01 01:42:38;;;;;;;0.40;0.40;;;;;;;-146.26;100.00;59860.63;5082134;28;20052;-73
2024/03/01 01:45:04;;;;;;;3.78;3.60;;;;;;;-146.26;100.00;59860.63;5082289;28;20048;-74
2024/03/01 01:47:30;;;;;;;3.35;3.15;;;;;;;-146.26;100.00;59860.63;5080060;28;20063;-73
2024/03/01 01:49:56;;;;;;;13.05;5.35;;;;;;;-146.26;100.00;59860.63;5077734;28;20035;-73
2024/03/01 01:52:22;;;;;;;0.85;0.85;;;;;;;-146.26;100.00;59860.63;5081772;28;20135;-73
2024/03/01 01:54:48;;;;;;;0.80;0.80;;;;;;;-146.26;100.00;59860.63;5078226;28;20735;-73
2024/03/01 01:57:35;;;;;;;4.07;3.83;;;;;;;-146.26;100.00;59860.63;5084321;28;20143;-73
2024/03/01 02:00:22;;;;;;;0.65;0.65;;;;;;;-146.26;100.00;59860.63;5073091;28;20412;-72
2024/03/01 02:02:52;;;;;;;7.15;4.22;;;;;;;-146.26;100.00;59860.63;5081279;28;20052;-74
2024/03/01 02:05:40;;;;;;;0.50;0.30;;;;;;;-146.26;100.00;59860.63;5069380;28;20123;-73
2024/03/01 02:08:26;;;;;;;0.20;0.20;;;;;;;-146.26;100.00;59860.63;5080335;28;20068;-73
2024/03/01 02:11:12;;;;;;;0.98;0.75;;;;;;;-146.26;100.00;59860.63;5081676;28;20040;-73
2024/03/01 02:13:58;;;;;;;1.13;0.77;;;;;;;-146.26;100.00;59860.63;5085270;28;20121;-73
2024/03/01 02:16:45;;;;;;;0.30;0.30;;;;;;;-146.26;100.00;59860.63;5061678;28;20063;-73
2024/03/01 02:19:35;;;;;;;6.78;6.40;;;;;;;-146.26;100.00;59860.63;5079464;28;20048;-73
2024/03/01 02:22:22;;;;;;;0.68;0.68;;;;;;;-146.26;100.00;59860.63;5079597;28;20080;-73
2024/03/01 02:25:08;;;;;;;0.77;0.77;;;;;;;-146.26;100.00;59860.63;5078569;28;20101;-73
2024/03/01 02:27:54;;;;;;;1.55;1.45;;;;;;;-146.26;100.00;59860.63;5075070;28;20068;-73
2024/03/01 02:30:40;;;;;;;3.60;3.42;;;;;;;-146.26;100.00;59860.63;5078007;28;20062;-73
2024/03/01 02:33:26;;;;;;;0.38;0.38;;;;;;;-146.26;100.00;59860.63;5079046;28;20048;-73
2024/03/01 02:36:13;;;;;;;0.80;0.80;;;;;;;-146.26;100.00;59860.63;5072077;28;20048;-73
2024/03/01 02:38:59;;;;;;;0.50;0.50;;;;;;;-146.26;100.00;59860.63;5053383;28;20506;-72
2024/03/01 02:41:46;;;;;;;0.30;0.30;;;;;;;-146.26;100.00;59860.63;5073288;28;20456;-73
2024/03/01 02:44:11;;;;;;;0.40;0.40;;;;;;;-146.26;100.00;59860.63;5075383;28;20040;-72
2024/03/01 02:46:37;;;;;;;1.63;1.52;;;;;;;-146.26;100.00;59860.63;5071988;28;24142;-72
2024/03/01 02:49:03;;;;;;;3.33;1.95;;;;;;;-146.26;100.00;59860.63;5078202;28;20220;-73
2024/03/01 02:51:29;;;;;;;1.25;1.25;;;;;;;-146.26;100.00;59860.63;5076952;28;20736;-73
2024/03/01 02:53:55;;;;;;;1.55;1.48;;;;;;;-146.26;100.00;59860.63;5082633;28;20044;-73
2024/03/01 02:56:20;;;;;;;0.60;0.60;;;;;;;-146.26;100.00;59860.63;5070773;28;20076;-72
2024/03/01 02:58:46;;;;;;;2.28;2.17;;;;;;;-146.26;100.00;59860.63;5078259;28;20127;-73
2024/03/01 03:01:11;;;;;;;1.30;1.08;;;;;;;-146.26;100.00;59860.63;5080086;28;20109;-73
2024/03/01 03:03:37;;;;;;;1.05;1.05;;;;;;;-146.26;100.00;59860.63;5075781;28;20101;-73
2024/03/01 03:06:03;;;;;;;3.40;3.20;;;;;;;-146.26;100.00;59860.63;5080140;28;20951;-73
2024/03/01 03:08:28;;;;;;;2.97;2.47;;;;;;;-146.26;100.00;59860.63;5062412;28;20060;-73
2024/03/01 03:10:54;;;;;;;0.93;0.88;;;;;;;-146.26;100.00;59860.63;5079980;28;20535;-74
2024/03/01 03:13:19;;;;;;;2.15;0.95;;;;;;;-146.26;100.00;59860.63;5080444;28;20128;-74
2024/03/01 03:15:45;;;;;;;0.30;0.30;;;;;;;-146.26;100.00;59860.63;5080642;28;20052;-73
2024/03/01 03:18:11;;;;;;;2.30;1.92;;;;;;;-146.26;100.00;59860.63;5082668;28;20051;-74
2024/03/01 03:20:38;;;;;;;1.33;1.30;;;;;;;-146.26;100.00;59860.63;5078121;28;20135;-74
2024/03/01 03:23:03;;;;;;;0.30;0.30;;;;;;;-146.26;100.00;59860.63;5064571;28;20027;-74
2024/03/01 03:25:29;;;;;;;0.38;0.38;;;;;;;-146.26;100.00;59860.63;5080368;28;20059;-73
2024/03/01 03:27:54;;;;;;;0.85;0.73;;;;;;;-146.26;100.00;59860.63;5080868;28;20050;-74
2024/03/01 03:30:20;;;;;;;1.00;0.95;;;;;;;-146.26;100.00;59860.63;5062728;28;20048;-74
2024/03/01 03:32:46;;;;;;;0.30;0.30;;;;;;;-146.26;100.00;59860.63;5069485;28;20448;-74
2024/03/01 03:35:12;;;;;;;9.07;8.50;;;;;;;-146.26;100.00;59860.63;5060354;28;20140;-74
2024/03/01 03:37:38;;;;;;;0.45;0.45;;;;;;;-146.26;100.00;59860.63;5062150;28;20123;-73
2024/03/01 03:40:14;;;;;;;3.85;3.55;;;;;;;-146.26;100.00;59860.63;5059980;28;20620;-74
2024/03/01 03:42:43;;;;;;;0.77;0.77;;;;;;;-146.26;100.00;59860.63;5046593;28;20488;-74
2024/03/01 03:45:10;;;;;;;0.40;0.40;;;;;;;-146.26;100.00;59860.63;5066242;28;20048;-74
2024/03/01 03:47:36;;;;;;;0.63;0.63;;;;;;;-146.26;100.00;59860.63;5062759;28;20048;-74
2024/03/01 03:50:07;;;;;;;0.43;0.43;;;;;;;-146.26;100.00;59860.63;5060475;28;20027;-74
2024/03/01 03:52:36;;;;;;;0.52;0.52;;;;;;;-146.26;100.00;59860.63;5061446;28;20442;-74
2024/03/01 03:55:06;;;;;;;0.63;0.63;;;;;;;-146.26;100.00;59860.63;5065315;28;20044;-73
2024/03/01 03:57:33;;;;;;;0.82;0.82;;;;;;;-146.26;100.00;59860.63;5064939;28;20056;-73
2024/03/01 04:00:09;;;;;;;0.30;0.30;;;;;;;-146.26;100.00;59860.63;5066590;28;20048;-72
2024/03/01 04:02:36;;;;;;;4.78;3.35;;;;;;;-146.26;100.00;59860.63;5052699;28;20041;-74
2024/03/01 04:05:01;;;;;;;11.27;7.50;;;;;;;-146.26;100.00;59860.63;5062118;28;20213;-74
2024/03/01 04:07:29;;;;;;;0.40;0.40;;;;;;;-146.26;100.00;59860.63;5061205;28;20036;-74
2024/03/01 04:09:55;;;;;;;0.52;0.52;;;;;;;-146.26;100.00;59860.63;5043716;28;20052;-73
2024/03/01 04:12:21;;;;;;;3.45;3.28;;;;;;;-146.26;100.00;59860.63;5062784;28;20081;-73
2024/03/01 04:14:47;;;;;;;0.47;0.47;;;;;;;-146.26;100.00;59860.63;5060913;28;20048;-72
2024/03/01 04:17:12;;;;;;;0.90;0.90;;;;;;;-146.26;100.00;59860.63;5056848;28;20054;-73
2024/03/01 04:19:38;;;;;;;2.05;1.95;;;;;;;-146.26;100.00;59860.63;5044932;28;20471;-72
2024/03/01 04:22:04;;;;;;;2.30;2.22;;;;;;;-146.26;100.00;59860.63;5057781;28;20048;-75
2024/03/01 04:24:30;;;;;;;0.30;0.30;;;;;;;-146.26;100.00;59860.63;5057410;28;20098;-74
2024/03/01 04:26:56;;;;;;;1.15;1.15;;;;;;;-146.26;100.00;59860.63;5055451;28;20044;-74
2024/03/01 04:29:21;;;;;;;0.30;0.30;;;;;;;-146.26;100.00;59860.63;5058340;28;20560;-73
2024/03/01 04:31:50;;;;;;;2.20;2.10;;;;;;;-146.26;100.00;59860.63;5059902;28;20033;-72
2024/03/01 04:34:16;;;;;;;0.93;0.93;;;;;;;-146.26;100.00;59860.63;5056952;28;20078;-74
2024/03/01 04:36:42;;;;;;;1.10;1.10;;;;;;;-146.26;100.00;59860.63;5058648;28;20048;-73
2024/03/01 04:39:09;;;;;;;1.15;1.15;;;;;;;-146.26;100.00;59860.63;5056197;28;20061;-73
2024/03/01 04:41:34;;;;;;;0.70;0.70;;;;;;;-146.26;100.00;59860.63;5054419;28;20048;-73
2024/03/01 04:44:00;;;;;;;1.15;1.05;;;;;;;-146.26;100.00;59860.63;5054440;28;20111;-72
2024/03/01 04:46:25;;;;;;;3.55;3.35;;;;;;;-146.26;100.00;59860.63;5063718;28;20438;-75
2024/03/01 04:48:51;;;;;;;1.63;1.52;;;;;;;-146.26;100.00;59860.63;5061273;28;20044;-72
2024/03/01 04:51:19;;;;;;;1.42;1.15;;;;;;;-146.26;100.00;59860.63;5061096;28;20045;-72
2024/03/01 04:53:45;;;;;;;21.63;11.80;;;;;;;-146.26;100.00;59860.63;5060366;28;20107;-72
2024/03/01 04:56:11;;;;;;;0.40;0.40;;;;;;;-146.26;100.00;59860.63;5061854;28;20036;-73
2024/03/01 04:58:36;;;;;;;1.15;1.10;;;;;;;-146.26;100.00;59860.63;5060631;28;20041;-73
2024/03/01 05:01:02;;;;;;;0.60;0.60;;;;;;;-146.26;100.00;59860.63;5064750;28;20040;-73
2024/03/01 05:03:31;;;;;;;0.30;0.30;;;;;;;-146.26;100.00;59860.63;5058224;28;20144;-73
2024/03/01 05:05:57;;;;;;;1.45;1.38;;;;;;;-146.26;100.00;59860.63;5057475;28;20057;-73
2024/03/01 05:08:24;;;;;;;2.13;2.03;;;;;;;-146.26;100.00;59860.63;5051088;28;20053;-72
2024/03/01 05:10:50;;;;;;;6.80;6.45;;;;;;;-146.26;100.00;59860.63;5060358;28;20032;-74
2024/03/01 05:13:17;;;;;;;0.50;0.50;;;;;;;-146.26;100.00;59860.63;5054456;28;20047;-72
2024/03/01 05:15:43;;;;;;;0.32;0.32;;;;;;;-146.26;100.00;59860.63;5060343;28;20044;-75
2024/03/01 05:18:09;;;;;;;0.30;0.30;;;;;;;-146.26;100.00;59860.63;5057448;28;20127;-72
2024/03/01 05:20:34;;;;;;;1.75;1.65;;;;;;;-146.26;100.00;59860.63;5058146;28;20075;-73
2024/03/01 05:23:00;;;;;;;1.20;1.20;;;;;;;-146.26;100.00;59860.63;5047233;28;20083;-73
2024/03/01 05:25:26;;;;;;;0.30;0.30;;;;;;;-146.26;100.00;59860.63;5064156;28;20109;-74
2024/03/01 05:27:52;;;;;;;0.20;0.20;;;;;;;-146.26;100.00;59860.63;5050958;28;20045;-73
2024/03/01 05:30:19;;;;;;;0.80;0.80;;;;;;;-146.26;100.00;59860.63;5056229;28;20044;-72
2024/03/01 05:32:47;;;;;;;1.60;1.55;;;;;;;-146.26;100.00;59860.63;5063049;28;20056;-74
2024/03/01 05:35:14;;;;;;;0.40;0.40;;;;;;;-146.26;100.00;59860.63;5060121;28;20071;-73
2024/03/01 05:37:43;;;;;;;4.68;4.47;;;;;;;-146.26;100.00;59860.63;5083566;28;20103;-73
2024/03/01 05:40:14;;;;;;;1.65;1.58;;;;;;;-146.26;100.00;59860.63;5081880;28;20067;-73
2024/03/01 05:42:41;;;;;;;0.47;0.47;;;;;;;-146.26;100.00;59860.63;5084910;28;20661;-73
2024/03/01 05:45:08;;;;;;;0.30;0.30;;;;;;;-146.26;100.00;59860.63;5085472;28;20680;-73
2024/03/01 05:47:42;;;;;;;1.30;1.20;;;;;;;-146.26;100.00;59860.63;5087237;28;20113;-72
2024/03/01 05:50:11;;;;;;;2.13;1.95;;;;;;;-146.26;100.00;59860.63;5075354;28;20758;-73
2024/03/01 05:52:39;;;;;;;0.30;0.30;;;;;;;-146.26;100.00;59860.63;5074485;28;20032;-74
2024/03/01 05:55:05;;;;;;;1.05;1.05;;;;;;;-146.26;100.00;59860.63;5075871;28;20105;-75
2024/03/01 05:57:32;;;;;;;0.40;0.40;;;;;;;-146.26;100.00;59860.63;5085470;28;20048;-74
2024/03/01 05:59:57;;;;;;;1.33;1.23;;;;;;;-146.26;100.00;59860.63;5077849;28;20574;-74
2024/03/01 06:02:23;;;;;;;0.30;0.30;;;;;;;-146.26;100.00;59860.63;5058957;28;20048;-73
2024/03/01 06:04:49;;;;;;;4.45;4.25;;;;;;;-146.26;100.00;59860.63;5079082;28;20032;-72
2024/03/01 06:07:16;;;;;;;3.08;2.78;;;;;;;-146.26;100.00;59860.63;5079607;28;20052;-74
2024/03/01 06:09:42;;;;;;;0.30;0.30;;;;;;;-146.26;100.00;59860.63;5065818;28;20048;-72
2024/03/01 06:12:08;;;;;;;1.10;1.05;;;;;;;-146.26;100.00;59860.63;5077601;28;20071;-74
2024/03/01 06:14:35;;;;;;;2.25;2.15;;;;;;;-146.26;100.00;59860.63;5061289;28;20098;-75
2024/03/01 06:17:01;;;;;;;18.10;1.75;;;;;;;-146.26;100.00;59860.63;5074540;28;20145;-76
2024/03/01 06:19:27;;;;;;;0.30;0.30;;;;;;;-146.26;100.00;59860.63;5078949;28;20087;-76
2024/03/01 06:21:56;;;;;;;5.05;4.72;;;;;;;-146.26;100.00;59860.63;5079994;28;20043;-74
2024/03/01 06:24:22;;;;;;;0.47;0.47;;;;;;;-146.26;100.00;59860.63;5060761;28;20712;-75
2024/03/01 06:26:49;;;;;;;0.65;0.65;;;;;;;-146.26;100.00;59860.63;5077281;28;20044;-75
2024/03/01 06:29:18;;;;;;;0.80;0.80;;;;;;;-146.26;100.00;59860.63;5060719;28;20624;-75
2024/03/01 06:31:43;;;;;;;1.95;1.85;;;;;;;-146.26;100.00;59860.63;5080540;28;20037;-75
2024/03/01 06:34:09;;;;;;;1.00;1.00;;;;;;;-146.26;100.00;59860.63;5060643;28;20074;-75
2024/03/01 06:36:35;;;;;;;0.73;0.73;;;;;;;-146.26;100.00;59860.63;5076401;28;20074;-76
2024/03/01 06:39:00;;;;;;;2.95;2.85;;;;;;;-146.26;100.00;59860.63;5064306;28;20111;-77
2024/03/01 06:41:26;;;;;;;2.15;2.08;;;;;;;-146.26;100.00;59860.63;5071983;28;20166;-76
2024/03/01 06:43:51;;;;;;;0.30;0.30;;;;;;;-146.26;100.00;59860.63;5066064;28;20039;-77
2024/03/01 06:46:17;;;;;;;0.73;0.73;;;;;;;-146.26;100.00;59860.63;5085291;28;20120;-76
2024/03/01 06:48:42;;;;;;;0.30;0.30;;;;;;;-146.26;100.00;59860.63;5082558;28;20044;-76
2024/03/01 06:51:08;;;;;;;1.00;1.00;;;;;;;-146.26;100.00;59860.63;5081933;28;20052;-76
2024/03/01 06:53:34;;;;;;;0.52;0.52;;;;;;;-146.26;100.00;59860.63;5082437;28;20048;-76
2024/03/01 06:56:04;;;;;;;0.20;0.20;;;;;;;-146.26;100.00;59860.63;5090215;28;20494;-77
2024/03/01 06:58:29;;;;;;;0.30;0.30;;;;;;;-146.26;100.00;59860.63;5080537;28;20122;-76
2024/03/01 07:00:55;;;;;;;6.18;5.78;;;;;;;-146.26;100.00;59860.63;5080905;28;20121;-78
2024/03/01 07:03:21;;;;;;;0.30;0.30;;;;;;;-146.26;100.00;59860.63;5078751;28;20459;-76
2024/03/01 07:05:46;;;;;;;2.40;2.30;;;;;;;-146.26;100.00;59860.63;5086020;28;20516;-76
2024/03/01 07:08:12;;;;;;;0.47;0.47;;;;;;;-146.26;100.00;59860.63;5080099;28;20047;-75
2024/03/01 07:10:38;;;;;;;0.50;0.50;;;;;;;-146.26;100.00;59860.63;5079299;28;20115;-75
2024/03/01 07:13:04;;;;;;;0.73;0.73;;;;;;;-146.26;100.00;59860.63;5081881;28;20121;-77
2024/03/01 07:15:30;;;;;;;12.57;11.55;;;;;;;-146.26;100.00;59860.63;5080260;28;20145;-77
2024/03/01 07:17:56;;;;;;;0.28;0.28;;;;;;;-146.26;100.00;59860.63;5059252;28;20573;-76
2024/03/01 07:20:22;;;;;;;5.63;3.85;;;;;;;-146.26;100.00;59860.63;5085257;28;20455;-76
2024/03/01 07:22:49;;;;;;;0.30;0.30;;;;;;;-146.26;100.00;59860.63;5085562;28;20038;-76
2024/03/01 07:25:15;;;;;;;0.30;0.30;;;;;;;-146.26;100.00;59860.63;5076922;28;20048;-77
2024/03/01 07:27:41;;;;;;;7.80;3.17;;;;;;;-146.26;100.00;59860.63;5086603;28;20141;-75
2024/03/01 07:30:07;;;;;;;2.30;2.20;;;;;;;-146.26;100.00;59860.63;5084843;28;20040;-76
2024/03/01 07:32:37;;;;;;;0.75;0.75;;;;;;;-146.26;100.00;59860.63;5086243;28;20575;-78
2024/03/01 07:35:05;;;;;;;0.30;0.30;;;;;;;-146.26;100.00;59860.63;5068894;28;20033;-78
2024/03/01 07:37:32;;;;;;;5.68;4.38;;;;;;;-146.26;100.00;59860.63;5069583;28;20098;-76
2024/03/01 07:39:58;;;;;;;0.45;0.45;;;;;;;-146.26;100.00;59860.63;5067923;28;21079;-77
2024/03/01 07:42:25;;;;;;;2.83;2.63;;;;;;;-146.26;100.00;59860.63;5057036;28;20051;-77
2024/03/01 07:44:52;;;;;;;0.55;0.55;;;;;;;-146.26;100.00;59860.63;5065942;28;20040;-78
2024/03/01 07:47:17;;;;;;;1.15;1.15;;;;;;;-146.26;100.00;59860.63;5085292;28;20113;-80
2024/03/01 07:49:43;;;;;;;0.20;0.20;;;;;;;-146.26;100.00;59860.63;5067899;28;20942;-78
2024/03/01 07:52:08;;;;;;;0.40;0.40;;;;;;;-146.26;100.00;59860.63;5083996;28;20048;-77
2024/03/01 07:54:34;;;;;;;0.82;0.82;;;;;;;-146.26;100.00;59860.63;5083116;28;20055;-76
2024/03/01 07:57:00;;;;;;;0.30;0.30;;;;;;;-146.26;100.00;59860.63;5083521;28;20051;-76
2024/03/01 07:59:26;;;;;;;0.50;0.50;;;;;;;-146.26;100.00;59860.63;5067014;28;20044;-76
2024/03/01 08:01:52;;;;;;;2.67;2.47;;;;;;;-146.26;100.00;59860.63;5085453;28;20039;-76
2024/03/01 08:04:17;;;;;;;2.67;2.47;;;;;;;-146.26;100.00;59860.63;5079445;28;20040;-78
2024/03/01 08:06:43;;;;;;;1.05;1.05;;;;;;;-146.26;100.00;59860.63;5074270;28;20448;-76
2024/03/01 08:09:22;;;;;;;0.40;0.40;;;;;;;-146.26;100.00;59860.63;5069541;28;20056;-76
2024/03/01 08:11:48;;;;;;;0.55;0.55;;;;;;;-146.26;100.00;59860.63;5070011;28;20048;-77
2024/03/01 08:14:34;;;;;;;0.45;0.45;;;;;;;-146.26;100.00;59860.63;5081216;28;20044;-77
2024/03/01 08:17:01;;;;;;;0.60;0.60;;;;;;;-146.26;100.00;59860.63;5082909;28;20043;-77
2024/03/01 08:19:41;;;;;;;0.40;0.40;;;;;;;-146.26;100.00;59860.63;5079252;28;20051;-77
2024/03/01 08:22:14;;;;;;;0.82;0.82;;;;;;;-146.26;100.00;59860.63;5081743;28;20361;-76
2024/03/01 08:24:42;;;;;;;0.52;0.52;;;;;;;-146.26;100.00;59860.63;5077067;28;20518;-75
2024/03/01 08:27:11;;;;;;;6.38;1.60;;;;;;;-146.26;100.00;59860.63;5074066;28;20048;-76
2024/03/01 08:29:37;;;;;;;0.75;0.63;;;;;;;-146.26;100.00;59860.63;5085090;28;20047;-76
2024/03/01 08:32:04;;;;;;;0.95;0.95;;;;;;;-146.26;100.00;59860.63;5083775;28;20054;-77
2024/03/01 08:34:55;;;;;;;1.27;1.05;;;;;;;-146.26;100.00;59860.63;5044031;28;20051;-76
2024/03/01 08:37:31;;;;;;;2.03;1.88;;;;;;;-146.26;100.00;59860.63;5044812;28;20044;-77
2024/03/01 08:39:57;;;;;;;1.52;1.42;;;;;;;-146.26;100.00;59860.63;5051472;28;20062;-76
2024/03/01 08:42:24;;;;;;;0.80;0.80;;;;;;;-146.26;100.00;59860.63;5063304;28;20048;-76
2024/03/01 08:44:54;;;;;;;4.35;4.15;;;;;;;-146.26;100.00;59860.63;5062678;28;20611;-75
2024/03/01 08:47:35;;;;;;;1.77;1.67;;;;;;;-146.26;100.00;59860.63;5062564;28;20416;-76
2024/03/01 08:50:23;;;;;;;0.50;0.50;;;;;;;-146.26;100.00;59860.63;5062997;28;20434;-77
2024/03/01 08:52:49;;;;;;;2.30;2.20;;;;;;;-146.26;100.00;59860.63;5064705;28;20094;-77
2024/03/01 08:55:20;;;;;;;0.57;0.45;;;;;;;-146.26;100.00;59860.63;5067465;28;20056;-75
2024/03/01 08:57:50;;;;;;;6.13;5.72;;;;;;;-146.26;100.00;59860.63;5064789;28;20028;-78
2024/03/01 09:00:37;;;;;;;0.35;0.35;;;;;;;-146.26;100.00;59860.63;5063974;28;20765;-76
2024/03/01 09:03:05;;;;;;;1.02;0.95;;;;;;;-146.26;100.00;59860.63;5063266;28;20083;-77
2024/03/01 09:05:34;;;;;;;0.50;0.50;;;;;;;-146.26;100.00;59860.63;5041164;28;20154;-76
2024/03/01 09:08:00;;;;;;;1.10;1.10;;;;;;;-146.26;100.00;59860.63;5060530;28;20040;-77
2024/03/01 09:10:27;;;;;;;1.48;1.38;;;;;;;-146.26;100.00;59860.63;5061730;28;20045;-78
2024/03/01 09:12:53;;;;;;;1.60;1.55;;;;;;;-146.26;100.00;59860.63;5044306;28;20134;-77
2024/03/01 09:15:23;;;;;;;0.40;0.40;;;;;;;-146.26;100.00;59860.63;5044120;28;20778;-77
2024/03/01 09:17:50;;;;;;;2.67;2.47;;;;;;;-146.26;100.00;59860.63;5064194;28;20484;-78
2024/03/01 09:20:28;;;;;;;4.93;4.60;;;;;;;-146.26;100.00;59860.63;5063386;28;20043;-76
2024/03/01 09:22:53;;;;;;;0.30;0.30;;;;;;;-146.26;100.00;59860.63;5055473;28;20133;-76
2024/03/01 09:25:45;;;;;;;0.40;0.40;;;;;;;-146.26;100.00;59860.63;5063505;28;20131;-78
2024/03/01 09:28:12;;;;;;;6.18;4.63;;;;;;;-146.26;100.00;59860.63;5063456;28;20070;-76
2024/03/01 09:30:39;;;;;;;0.35;0.35;;;;;;;-146.26;100.00;59860.63;5046107;28;20053;-76
2024/03/01 09:33:10;;;;;;;0.30;0.30;;;;;;;-146.26;100.00;59860.63;5070669;28;20048;-76
2024/03/01 09:35:37;;;;;;;0.30;0.30;;;;;;;-146.26;100.00;59860.63;5081469;28;20126;-76
2024/03/01 09:38:04;;;;;;;26.58;25.00;;;;;;;-146.26;100.00;59860.63;5061681;28;20032;-76
2024/03/01 09:40:39;;;;;;;21.35;4.43;;;;;;;-146.26;100.00;59860.63;5087401;28;20027;-77
2024/03/01 09:43:17;;;;;;;7.10;6.65;;;;;;;-146.26;100.00;59860.63;5078704;28;20056;-77
2024/03/01 09:45:46;;;;;;;0.93;0.93;;;;;;;-146.26;100.00;59860.63;5073670;28;20048;-76
2024/03/01 09:48:30;;;;;;;0.70;0.70;;;;;;;-146.26;100.00;59860.63;5087991;28;20400;-78
2024/03/01 09:51:23;;;;;;;0.52;0.50;;;;;;;-146.26;100.00;59860.63;5084178;28;20040;-76
2024/03/01 09:54:10;;;;;;;0.88;0.75;;;;;;;-146.26;100.00;59860.63;5086219;28;20047;-76
2024/03/01 09:56:47;;;;;;;0.70;0.70;;;;;;;-146.26;100.00;59860.63;5083500;28;20052;-76
2024/03/01 09:59:13;;;;;;;1.25;1.15;;;;;;;-146.26;100.00;59860.63;5065756;28;20042;-77
2024/03/01 10:01:49;;;;;;;1.30;1.10;;;;;;;-146.26;100.00;59860.63;5087813;28;20223;-78
2024/03/01 10:04:15;;;;;;;4.35;4.13;;;;;;;-146.26;100.00;59860.63;5064448;28;20566;-76
2024/03/01 10:07:22;;;;;;;0.65;0.65;;;;;;;-146.26;100.00;59860.63;5086990;28;20044;-77
2024/03/01 10:10:13;;;;;;;3.50;3.28;;;;;;;-146.26;100.00;59860.63;5083964;28;20052;-76
2024/03/01 10:12:51;;;;;;;3.50;3.35;;;;;;;-146.26;100.00;59860.63;5060380;28;20060;-76
2024/03/01 10:15:17;;;;;;;0.20;0.20;;;;;;;-146.26;100.00;59860.63;5071555;28;20143;-77
2024/03/01 10:17:56;;;;;;;0.30;0.30;;;;;;;-146.26;100.00;59860.63;5069574;28;20161;-76
2024/03/01 10:20:46;;;;;;;0.85;0.85;;;;;;;-146.26;100.00;59860.63;5087635;28;20032;-75
2024/03/01 10:23:34;;;;;;;4.03;2.50;;;;;;;-146.26;100.00;59860.63;5087359;28;20017;-75
2024/03/01 10:26:08;;;;;;;3.05;1.73;;;;;;;-146.26;100.00;59860.63;5066641;28;20035;-76
2024/03/01 10:29:15;;;;;;;0.68;0.68;;;;;;;-146.26;100.00;59860.63;5079346;28;20424;-77
2024/03/01 10:31:53;;;;;;;0.75;0.75;;;;;;;-146.26;100.00;59860.63;5078733;28;20131;-75
2024/03/01 10:34:30;;;;;;;1.65;1.50;;;;;;;-146.26;100.00;59860.63;5067706;28;20052;-76
2024/03/01 10:37:02;;;;;;;0.50;0.50;;;;;;;-146.26;100.00;59860.63;5064769;28;20086;-77
2024/03/01 10:39:38;;;;;;;0.40;0.40;;;;;;;-146.26;100.00;59860.63;5065548;28;20075;-77
2024/03/01 10:42:13;;;;;;;1.00;1.00;;;;;;;-146.26;100.00;59860.63;5065775;28;20040;-76
2024/03/01 10:44:47;;;;;;;0.60;0.60;;;;;;;-146.26;100.00;59860.63;5066459;28;20098;-76
2024/03/01 10:47:17;;;;;;;0.38;0.38;;;;;;;-146.26;100.00;59860.63;5066472;28;20043;-77
2024/03/01 10:50:07;;;;;;;1.05;1.05;;;;;;;-146.26;100.00;59860.63;5065686;28;20047;-76
2024/03/01 10:52:39;;;;;;;1.35;1.25;;;;;;;-146.26;100.00;59860.63;5061334;28;20055;-76
2024/03/01 10:55:19;;;;;;;0.25;0.25;;;;;;;-146.26;100.00;59860.63;5045653;28;20040;-76
2024/03/01 10:58:03;;;;;;;0.30;0.30;;;;;;;-146.26;100.00;59860.63;5031677;28;20060;-76
2024/03/01 11:00:29;;;;;;;1.40;1.35;;;;;;;-146.26;100.00;59860.63;5060299;28;20445;-77
2024/03/01 11:03:00;;;;;;;1.38;1.30;;;;;;;-146.26;100.00;59860.63;5065758;28;20462;-75
2024/03/01 11:05:41;;;;;;;0.30;0.30;;;;;;;-146.26;100.00;59860.63;5064255;28;20114;-76
2024/03/01 11:08:23;;;;;;;1.00;1.00;;;;;;;-146.26;100.00;59860.63;5072526;28;20036;-77
2024/03/01 11:11:10;;;;;;;0.20;0.20;;;;;;;-146.26;100.00;59860.63;5048879;28;20036;-77
2024/03/01 11:13:39;;;;;;;1.40;1.30;;;;;;;-146.26;100.00;59860.63;5041064;28;20822;-78
2024/03/01 11:16:09;;;;;;;0.35;0.30;;;;;;;-146.26;100.00;59860.63;5065805;28;20052;-76
2024/03/01 11:18:41;;;;;;;2.42;2.10;;;;;;;-146.26;100.00;59860.63;5064737;28;20056;-78
2024/03/01 11:21:13;;;;;;;0.40;0.40;;;;;;;-146.26;100.00;59860.63;5066280;28;20037;-77